Time;durP1;ratioP1;P1;durP2;ratioP2;P2;SDS_P1;SDS_P2;PMS_P1;PMS_P2;Temp;Humidity;BMP_temperature;BMP_pressure;BME280_temperature;BME280_humidity;BME280_pressure;Samples;Min_cycle;Max_cycle;Signal;HPM_P1;HPM_P2
2023/01/30 00:00:30;;;;;;;;;32.50;27.00;;;;;5.31;70.65;102059.34;4995826;28;45408;-59
2023/01/30 00:02:56;;;;;;;;;33.25;28.50;;;;;5.29;71.54;102066.81;4996188;28;45347;-58
2023/01/30 00:05:21;;;;;;;;;37.25;27.25;;;;;5.25;71.33;102062.66;4995457;28;46517;-61
2023/01/30 00:07:47;;;;;;;;;39.00;27.50;;;;;5.27;70.79;102079.69;4994703;28;45307;-62
2023/01/30 00:10:12;;;;;;;;;25.75;24.50;;;;;5.28;70.62;102079.56;5027625;28;45397;-61
2023/01/30 00:12:38;;;;;;;;;38.75;34.25;;;;;5.19;71.06;102076.84;4996616;28;45539;-61
2023/01/30 00:15:04;;;;;;;;;32.25;31.00;;;;;5.10;70.79;102064.94;4996017;28;46055;-62
2023/01/30 00:17:30;;;;;;;;;35.00;32.00;;;;;5.20;71.34;102073.09;5014574;28;45456;-62
2023/01/30 00:19:55;;;;;;;;;37.75;31.50;;;;;5.13;71.34;102051.06;5016324;28;45231;-60
2023/01/30 00:22:21;;;;;;;;;31.00;30.00;;;;;5.24;71.44;102058.22;5031271;28;45556;-55
2023/01/30 00:24:46;;;;;;;;;28.25;25.00;;;;;5.28;71.33;102059.63;5029762;28;48276;-59
2023/01/30 00:27:12;;;;;;;;;32.00;26.75;;;;;5.26;70.46;102048.91;5015552;28;45381;-59
2023/01/30 00:29:37;;;;;;;;;30.50;29.00;;;;;5.27;71.31;102057.91;5016086;28;45445;-61
2023/01/30 00:32:03;;;;;;;;;31.25;27.50;;;;;5.08;70.93;102007.91;5015816;28;45343;-62
2023/01/30 00:34:29;;;;;;;;;43.00;32.50;;;;;5.22;71.28;102036.56;5015764;28;45806;-62
2023/01/30 00:36:54;;;;;;;;;44.75;33.75;;;;;5.25;70.39;102033.56;5015526;28;45344;-60
2023/01/30 00:39:20;;;;;;;;;31.75;30.50;;;;;5.27;70.90;102025.25;5030713;28;45396;-61
2023/01/30 00:47:13;;;;;;;;;35.20;31.00;;;;;5.37;70.08;102026.09;5028357;28;45475;-62
2023/01/30 00:49:38;;;;;;;;;29.00;28.00;;;;;5.32;70.59;102005.78;5015252;28;45375;-61
2023/01/30 00:52:04;;;;;;;;;29.50;24.75;;;;;5.40;70.58;102005.88;5015653;28;45394;-57
2023/01/30 00:54:30;;;;;;;;;29.00;27.00;;;;;5.41;69.83;101996.72;5015460;28;46267;-58
2023/01/30 00:56:56;;;;;;;;;38.00;25.25;;;;;5.41;70.21;102007.59;5006048;28;45655;-60
2023/01/30 00:59:22;;;;;;;;;37.40;28.40;;;;;5.40;70.68;102005.88;5002204;28;45394;-62
2023/01/30 01:01:47;;;;;;;;;29.50;26.25;;;;;5.43;70.25;101989.25;5014887;28;45230;-62
2023/01/30 01:04:13;;;;;;;;;33.75;29.00;;;;;5.38;70.27;101975.19;5047378;28;47497;-62
2023/01/30 01:06:39;;;;;;;;;29.75;25.50;;;;;5.42;70.00;101996.56;5013761;28;45464;-61
2023/01/30 01:09:05;;;;;;;;;28.00;20.80;;;;;5.36;69.97;101975.38;5047567;28;45213;-62
2023/01/30 01:11:30;;;;;;;;;31.00;25.00;;;;;5.44;69.57;101980.06;5015492;28;45418;-61
2023/01/30 01:13:57;;;;;;;;;27.75;25.25;;;;;5.25;70.08;101951.03;5015402;28;46552;-57
2023/01/30 01:16:23;;;;;;;;;27.00;25.00;;;;;5.47;69.44;101978.91;5014831;28;45433;-60
2023/01/30 01:18:49;;;;;;;;;27.25;25.00;;;;;5.46;69.34;101967.19;5014613;28;45345;-61
2023/01/30 01:21:14;;;;;;;;;29.00;25.25;;;;;5.48;69.88;101981.50;5015284;28;45387;-62
2023/01/30 01:23:40;;;;;;;;;29.25;23.75;;;;;5.17;69.75;101940.88;5014449;28;46406;-61
2023/01/30 01:26:05;;;;;;;;;35.75;28.00;;;;;5.37;70.00;101960.75;5014552;28;45361;-61
2023/01/30 01:28:31;;;;;;;;;26.00;22.75;;;;;5.41;69.14;101953.16;5014893;28;45427;-62
2023/01/30 01:30:56;;;;;;;;;34.25;24.75;;;;;5.38;69.81;101953.41;5015502;28;45212;-61
2023/01/30 01:33:26;;;;;;;;;19.50;16.50;;;;;5.39;69.78;101944.28;5014813;28;46146;-60
2023/01/30 01:35:55;;;;;;;;;33.60;26.20;;;;;5.46;69.96;101948.13;5029498;28;45461;-59
2023/01/30 01:38:21;;;;;;;;;29.40;26.00;;;;;5.50;69.37;101943.22;5014864;28;45275;-61
2023/01/30 01:41:01;;;;;;;;;26.75;24.00;;;;;5.47;69.06;101955.28;5014783;28;45322;-61
2023/01/30 01:43:28;;;;;;;;;32.00;25.80;;;;;5.51;69.46;101962.13;5014775;28;45800;-61
2023/01/30 01:45:57;;;;;;;;;29.40;27.00;;;;;5.46;69.07;101960.88;5012793;28;45365;-61
2023/01/30 01:48:37;;;;;;;;;38.60;27.00;;;;;5.20;69.65;101907.94;5012928;28;45184;-61
2023/01/30 01:51:05;;;;;;;;;31.80;28.20;;;;;5.45;69.67;101950.97;5012789;28;45570;-61
2023/01/30 01:53:37;;;;;;;;;33.20;27.40;;;;;5.38;69.64;101932.50;5029110;28;46275;-61
2023/01/30 01:56:03;;;;;;;;;31.40;27.20;;;;;5.46;69.65;101955.41;5012564;28;45422;-60
2023/01/30 01:58:31;;;;;;;;;33.75;27.50;;;;;5.46;68.76;101952.69;5014434;28;45382;-62
2023/01/30 02:00:57;;;;;;;;;28.40;26.00;;;;;5.40;69.06;101952.28;5013418;28;45398;-61
2023/01/30 02:03:23;;;;;;;;;40.00;32.20;;;;;5.34;68.85;101960.19;5012509;28;47747;-62
2023/01/30 02:05:50;;;;;;;;;26.60;22.60;;;;;5.21;70.41;101958.63;5014374;28;45397;-61
2023/01/30 02:08:22;;;;;;;;;33.60;24.60;;;;;5.07;69.52;101912.84;4995726;28;45437;-59
2023/01/30 02:11:06;;;;;;;;;31.00;24.80;;;;;5.10;69.81;101917.97;5029537;28;45426;-61
2023/01/30 02:13:31;;;;;;;;;28.80;27.60;;;;;5.29;69.00;101952.47;5013782;28;45372;-61
2023/01/30 02:15:58;;;;;;;;;31.75;25.00;;;;;5.34;69.21;101954.75;4995901;28;45455;-61
2023/01/30 02:18:24;;;;;;;;;37.00;30.00;;;;;5.23;69.86;101932.13;5028958;28;45484;-62
2023/01/30 02:20:59;;;;;;;;;33.00;27.50;;;;;5.38;68.99;101945.25;5029620;28;45446;-61
2023/01/30 02:23:50;;;;;;;;;19.00;17.40;;;;;5.41;69.38;101944.97;5011805;28;46953;-63
2023/01/30 02:26:27;;;;;;;;;40.80;31.80;;;;;5.42;68.55;101947.56;5013336;28;45799;-60
2023/01/30 02:28:56;;;;;;;;;27.20;23.60;;;;;5.42;69.93;101931.22;5014137;28;45400;-61
2023/01/30 02:31:30;;;;;;;;;25.80;23.60;;;;;5.29;69.00;101903.47;5017693;28;45466;-60
2023/01/30 02:34:04;;;;;;;;;31.80;26.80;;;;;5.43;69.48;101926.63;5048960;28;48151;-56
2023/01/30 02:36:44;;;;;;;;;34.60;24.80;;;;;5.24;68.66;101898.44;5017047;28;45366;-60
2023/01/30 02:39:19;;;;;;;;;31.80;24.60;;;;;5.48;68.79;101939.78;5017373;28;45366;-60
2023/01/30 02:41:44;;;;;;;;;31.80;29.40;;;;;5.25;69.30;101911.06;5032928;28;45467;-58
2023/01/30 02:44:22;;;;;;;;;29.75;26.25;;;;;5.35;68.90;101935.53;5017151;28;46490;-56
2023/01/30 02:47:05;;;;;;;;;34.40;27.40;;;;;5.27;68.69;101917.22;5015930;28;45311;-61
2023/01/30 02:49:51;;;;;;;;;29.20;26.20;;;;;5.41;69.24;101923.19;5017531;28;45788;-61
2023/01/30 02:52:17;;;;;;;;;28.80;26.20;;;;;5.44;69.03;101936.50;5017550;28;45415;-61
2023/01/30 02:54:42;;;;;;;;;39.00;29.75;;;;;5.43;68.88;101945.69;5032618;28;45426;-60
2023/01/30 02:57:17;;;;;;;;;31.75;28.50;;;;;5.24;68.50;101917.50;5016071;28;45377;-55
2023/01/30 02:59:44;;;;;;;;;27.60;24.20;;;;;5.44;68.82;101950.09;5015816;28;45358;-60
2023/01/30 03:02:12;;;;;;;;;21.20;20.20;;;;;5.39;68.96;101936.09;5016102;28;45501;-61
2023/01/30 03:05:06;;;;;;;;;32.00;25.00;;;;;5.37;68.47;101930.81;5004223;28;45428;-58
2023/01/30 03:08:06;;;;;;;;;32.80;24.20;;;;;5.45;68.57;101950.97;5032457;28;45501;-61
2023/01/30 03:10:59;;;;;;;;;32.60;26.80;;;;;5.37;69.13;101949.84;5015769;28;45370;-59
2023/01/30 03:13:36;;;;;;;;;32.40;25.80;;;;;5.29;69.28;101934.25;5012882;28;45703;-59
2023/01/30 03:16:05;;;;;;;;;28.80;26.00;;;;;5.36;69.18;101936.38;5016769;28;45483;-61
2023/01/30 03:18:30;;;;;;;;;33.60;28.20;;;;;5.37;69.19;101938.09;5015302;28;45424;-59
2023/01/30 03:20:56;;;;;;;;;29.75;26.00;;;;;5.39;69.56;101938.81;5017067;28;45436;-61
2023/01/30 03:23:21;;;;;;;;;32.00;31.00;;;;;5.42;68.93;101946.69;5015637;28;45416;-61
2023/01/30 03:25:47;;;;;;;;;32.00;26.50;;;;;5.39;69.48;101945.13;5016531;28;46229;-59
2023/01/30 03:28:14;;;;;;;;;27.75;24.75;;;;;5.37;70.16;101946.25;5015895;28;45969;-57
2023/01/30 03:30:40;;;;;;;;;36.20;26.60;;;;;5.39;70.04;101947.84;4999334;28;45369;-58
2023/01/30 03:33:05;;;;;;;;;27.50;20.75;;;;;5.41;69.64;101940.38;5016922;28;45293;-59
2023/01/30 03:35:31;;;;;;;;;22.25;21.00;;;;;5.33;70.52;101923.91;5015309;28;48441;-61
2023/01/30 03:37:57;;;;;;;;;26.50;23.50;;;;;5.31;70.54;101935.97;5014964;28;45434;-60
2023/01/30 03:40:22;;;;;;;;;31.80;28.60;;;;;5.39;70.06;101936.09;5016770;28;45341;-60
2023/01/30 03:42:48;;;;;;;;;35.00;28.25;;;;;5.39;69.93;101926.06;5032054;28;45439;-60
2023/01/30 03:45:13;;;;;;;;;24.50;21.25;;;;;5.42;70.78;101939.38;5016393;28;45735;-60
2023/01/30 03:47:39;;;;;;;;;31.00;27.00;;;;;5.38;71.25;101931.63;5015385;28;45315;-59
2023/01/30 03:50:04;;;;;;;;;27.75;26.25;;;;;5.42;72.07;101943.97;5016240;28;45369;-59
2023/01/30 03:52:30;;;;;;;;;30.50;25.75;;;;;5.39;71.81;101927.94;5031819;28;45390;-57
2023/01/30 03:54:56;;;;;;;;;29.75;29.75;;;;;5.42;71.85;101919.47;5016014;28;45438;-59
2023/01/30 03:57:21;;;;;;;;;32.50;27.25;;;;;5.42;71.83;101914.88;5015009;28;45381;-59
2023/01/30 03:59:47;;;;;;;;;29.25;24.75;;;;;5.45;71.89;101908.28;5014953;28;45328;-61
2023/01/30 04:02:13;;;;;;;;;31.00;24.75;;;;;5.41;71.02;101904.97;5016419;28;45314;-60
2023/01/30 04:04:39;;;;;;;;;25.80;24.00;;;;;5.48;71.15;101920.72;5016175;28;46539;-60
2023/01/30 04:07:04;;;;;;;;;30.50;28.75;;;;;5.46;71.01;101900.94;5015839;28;45314;-61
2023/01/30 04:09:30;;;;;;;;;32.00;24.50;;;;;5.40;70.80;101896.97;5016188;28;45298;-60
2023/01/30 04:11:55;;;;;;;;;36.00;31.75;;;;;5.23;71.69;101860.50;5015935;28;45459;-58
2023/01/30 04:14:21;;;;;;;;;28.50;24.75;;;;;5.32;71.34;101875.09;5015705;28;45413;-54
2023/01/30 04:16:46;;;;;;;;;29.75;24.75;;;;;5.31;70.89;101865.19;5014682;28;45389;-57
2023/01/30 04:19:12;;;;;;;;;33.00;28.25;;;;;5.49;71.13;101900.66;5014237;28;45316;-58
2023/01/30 04:21:37;;;;;;;;;29.50;24.50;;;;;5.21;71.26;101866.09;5031534;28;45559;-60
2023/01/30 04:24:03;;;;;;;;;31.00;24.75;;;;;5.40;72.23;101900.53;5030745;28;45355;-61
2023/01/30 04:26:28;;;;;;;;;31.50;26.25;;;;;5.38;72.11;101901.69;5016007;28;45579;-60
2023/01/30 04:28:54;;;;;;;;;29.50;24.50;;;;;5.48;71.70;101907.09;5015851;28;45374;-60
2023/01/30 04:31:20;;;;;;;;;26.50;24.25;;;;;5.35;71.71;101886.53;5016403;28;45289;-62
2023/01/30 04:33:45;;;;;;;;;29.00;25.00;;;;;5.17;71.39;101847.47;5030717;28;45562;-61
2023/01/30 04:36:11;;;;;;;;;29.25;25.25;;;;;5.47;71.39;101889.03;5030686;28;45725;-60
2023/01/30 04:38:37;;;;;;;;;26.50;22.75;;;;;5.44;72.28;101873.88;5031019;28;45883;-58
2023/01/30 04:41:03;;;;;;;;;35.00;28.25;;;;;5.50;71.21;101877.88;4981135;28;47093;-60
2023/01/30 04:43:28;;;;;;;;;33.25;29.25;;;;;5.50;71.04;101881.44;5015617;28;45401;-62
2023/01/30 04:45:54;;;;;;;;;23.75;21.75;;;;;5.51;70.99;101879.59;5015496;28;45275;-62
2023/01/30 04:48:19;;;;;;;;;33.75;26.25;;;;;5.51;71.69;101880.41;5015038;28;45399;-61
2023/01/30 04:50:48;;;;;;;;;30.00;26.00;;;;;5.53;70.82;101881.16;5015654;28;45302;-61
2023/01/30 04:53:14;;;;;;;;;34.40;26.60;;;;;5.50;71.87;101881.44;5013076;28;46791;-61
2023/01/30 04:55:39;;;;;;;;;31.00;28.20;;;;;5.34;71.52;101857.56;5030942;28;45520;-60
2023/01/30 04:58:05;;;;;;;;;34.00;24.75;;;;;5.56;71.63;101882.72;5015511;28;45434;-57
2023/01/30 05:00:30;;;;;;;;;29.25;24.75;;;;;5.55;71.56;101881.84;5015445;28;45366;-59
2023/01/30 05:02:56;;;;;;;;;33.00;28.75;;;;;5.57;71.03;101889.88;5015075;28;46566;-60
2023/01/30 05:05:22;;;;;;;;;36.00;29.00;;;;;5.59;71.53;101881.56;5015172;28;45388;-63
2023/01/30 05:07:48;;;;;;;;;22.40;20.20;;;;;5.63;71.29;101882.94;5015694;28;45407;-61
2023/01/30 05:10:13;;;;;;;;;33.00;25.50;;;;;4.98;70.84;101776.66;5015481;28;45384;-62
2023/01/30 05:12:39;;;;;;;;;31.00;28.25;;;;;5.62;71.43;101878.53;5013574;28;45993;-60
2023/01/30 05:15:05;;;;;;;;;35.75;30.00;;;;;5.38;72.32;101842.66;5014931;28;45341;-61
2023/01/30 05:17:31;;;;;;;;;32.80;25.20;;;;;5.59;72.40;101887.00;5013607;28;45354;-56
2023/01/30 05:19:57;;;;;;;;;35.40;24.20;;;;;5.60;72.37;101878.66;5014997;28;45370;-58
2023/01/30 05:22:22;;;;;;;;;33.25;25.50;;;;;5.60;71.72;101888.72;5029712;28;46108;-60
2023/01/30 05:24:48;;;;;;;;;26.00;25.25;;;;;5.58;72.49;101888.84;5014849;28;45321;-62
2023/01/30 05:27:13;;;;;;;;;24.00;21.25;;;;;5.63;72.36;101888.41;5030169;28;45646;-62
2023/01/30 05:29:39;;;;;;;;;27.50;25.75;;;;;5.44;72.48;101852.06;5014829;28;45487;-62
2023/01/30 05:32:05;;;;;;;;;26.25;24.00;;;;;5.61;72.24;101880.38;5030005;28;46474;-61
2023/01/30 05:34:30;;;;;;;;;34.75;25.50;;;;;5.52;72.70;101863.09;5029923;28;45519;-61
2023/01/30 05:36:56;;;;;;;;;26.00;23.75;;;;;5.47;72.01;101838.19;5029928;28;45419;-61
2023/01/30 05:39:21;;;;;;;;;24.00;20.25;;;;;5.65;72.05;101876.34;5015139;28;45891;-62
2023/01/30 05:41:47;;;;;;;;;25.25;23.75;;;;;5.70;72.46;101879.47;5014768;28;47283;-58
2023/01/30 05:44:13;;;;;;;;;22.50;21.25;;;;;5.72;72.56;101873.88;5001802;28;45378;-60
2023/01/30 05:46:38;;;;;;;;;31.50;25.25;;;;;5.73;72.61;101874.72;5034338;28;45923;-62
2023/01/30 05:49:03;;;;;;;;;22.25;18.00;;;;;5.71;72.21;101858.53;5013580;28;45674;-63
2023/01/30 05:51:29;;;;;;;;;29.25;24.50;;;;;5.62;72.41;101838.53;5013473;28;46585;-61
2023/01/30 05:53:55;;;;;;;;;36.00;27.50;;;;;5.78;72.78;101867.84;5014162;28;45369;-61
2023/01/30 05:56:20;;;;;;;;;30.25;23.25;;;;;5.78;72.41;101866.97;5030065;28;45455;-61
2023/01/30 05:58:52;;;;;;;;;38.75;31.25;;;;;5.79;72.84;101877.72;5012957;28;45330;-61
2023/01/30 06:01:17;;;;;;;;;36.60;27.80;;;;;5.83;72.81;101870.94;5014403;28;45504;-59
2023/01/30 06:03:43;;;;;;;;;27.25;23.00;;;;;5.79;73.43;101869.53;5013164;28;45385;-61
2023/01/30 06:06:09;;;;;;;;;21.25;20.25;;;;;5.81;74.05;101866.66;5014583;28;45377;-61
2023/01/30 06:08:34;;;;;;;;;30.50;27.75;;;;;5.78;73.65;101856.94;5014428;28;45302;-61
2023/01/30 06:11:01;;;;;;;;;27.75;24.75;;;;;5.81;74.31;101866.66;5014302;28;46451;-61
2023/01/30 06:13:26;;;;;;;;;24.00;18.60;;;;;5.63;74.18;101828.47;5014132;28;45346;-62
2023/01/30 06:15:52;;;;;;;;;23.50;20.25;;;;;5.77;74.48;101860.66;5013900;28;45387;-60
2023/01/30 06:18:17;;;;;;;;;30.00;25.25;;;;;5.77;74.36;101849.75;5014528;28;45452;-59
2023/01/30 06:20:47;;;;;;;;;32.25;21.75;;;;;5.75;73.40;101843.59;5013774;28;46010;-59
2023/01/30 06:23:13;;;;;;;;;32.20;27.20;;;;;5.81;74.50;101837.53;5014215;28;45362;-62
2023/01/30 06:25:42;;;;;;;;;25.50;21.25;;;;;5.83;73.60;101843.69;5014375;28;45420;-61
2023/01/30 06:28:08;;;;;;;;;32.40;25.20;;;;;5.82;73.59;101835.69;5014386;28;45373;-62
2023/01/30 06:30:33;;;;;;;;;19.50;14.00;;;;;5.80;74.11;101824.94;5012569;28;45193;-61
2023/01/30 06:32:59;;;;;;;;;27.75;23.75;;;;;5.79;73.93;101825.09;5012896;28;45495;-60
2023/01/30 06:35:24;;;;;;;;;19.25;17.50;;;;;5.86;73.76;101837.06;5029272;28;45437;-59
2023/01/30 06:37:50;;;;;;;;;31.00;22.00;;;;;5.83;73.88;101845.56;5013980;28;45303;-60
2023/01/30 06:40:16;;;;;;;;;21.75;18.00;;;;;5.83;74.75;101853.75;5013556;28;45950;-62
2023/01/30 06:42:45;;;;;;;;;24.75;23.25;;;;;5.86;74.20;101861.59;5013699;28;45349;-62
2023/01/30 06:45:12;;;;;;;;;25.40;23.80;;;;;5.81;74.36;101869.38;5028929;28;45358;-62
2023/01/30 06:47:48;;;;;;;;;26.00;22.80;;;;;5.79;75.16;101871.41;5029247;28;45649;-61
2023/01/30 06:50:14;;;;;;;;;29.20;24.20;;;;;5.81;75.13;101881.13;5013464;28;46628;-62
2023/01/30 06:52:41;;;;;;;;;30.40;24.20;;;;;5.84;74.69;101894.44;5013542;28;45374;-61
2023/01/30 06:55:07;;;;;;;;;28.80;20.40;;;;;5.83;74.36;101909.09;5012253;28;45437;-62
2023/01/30 06:57:33;;;;;;;;;27.20;22.60;;;;;5.24;75.30;101794.16;5012596;28;45610;-59
2023/01/30 06:59:58;;;;;;;;;29.75;20.75;;;;;5.66;75.17;101894.41;5028514;28;48460;-60
2023/01/30 07:02:24;;;;;;;;;25.50;23.75;;;;;5.66;75.79;101909.91;5013735;28;45429;-58
2023/01/30 07:04:49;;;;;;;;;31.25;24.25;;;;;5.66;76.10;101916.19;5013735;28;45232;-60
2023/01/30 07:07:15;;;;;;;;;29.25;25.50;;;;;5.63;76.70;101907.47;5028960;28;46051;-61
2023/01/30 07:09:40;;;;;;;;;28.25;24.50;;;;;5.67;76.73;101909.72;5028950;28;47570;-63
2023/01/30 07:12:06;;;;;;;;;30.00;23.50;;;;;5.73;76.27;101905.56;5013435;28;45352;-62
2023/01/30 07:14:32;;;;;;;;;30.50;25.25;;;;;5.75;76.34;101908.13;5013879;28;45338;-62
2023/01/30 07:16:57;;;;;;;;;24.00;23.75;;;;;5.84;76.42;101921.69;5015626;28;45578;-62
2023/01/30 07:19:23;;;;;;;;;24.25;21.50;;;;;5.84;75.69;101924.41;5015370;28;45414;-62
2023/01/30 07:21:48;;;;;;;;;30.75;25.75;;;;;5.85;76.28;101933.47;5015861;28;45361;-61
2023/01/30 07:24:14;;;;;;;;;26.00;21.25;;;;;5.88;75.87;101924.13;5016826;28;45418;-61
2023/01/30 07:26:39;;;;;;;;;29.00;23.50;;;;;5.90;76.71;101911.19;5017255;28;45598;-61
2023/01/30 07:29:05;;;;;;;;;29.25;19.50;;;;;5.88;76.10;101918.69;5016244;28;46220;-59
2023/01/30 07:31:30;;;;;;;;;21.75;21.50;;;;;5.75;75.92;101895.38;5032232;28;45448;-62
2023/01/30 07:33:56;;;;;;;;;33.00;25.00;;;;;5.39;76.11;101835.34;5016990;28;45387;-64
2023/01/30 07:36:22;;;;;;;;;25.00;22.00;;;;;6.04;75.47;101935.25;5016648;28;45338;-61
2023/01/30 07:38:48;;;;;;;;;29.50;21.25;;;;;5.91;75.80;101913.78;5016863;28;45439;-64
2023/01/30 07:41:13;;;;;;;;;26.20;17.80;;;;;5.93;77.16;101944.47;5031301;28;45475;-62
2023/01/30 07:43:39;;;;;;;;;26.00;23.50;;;;;5.96;76.62;101949.63;5032332;28;45372;-62
2023/01/30 07:46:04;;;;;;;;;22.75;22.00;;;;;5.93;76.54;101935.44;5016466;28;45609;-61
2023/01/30 07:48:30;;;;;;;;;26.25;21.50;;;;;5.86;77.41;101924.28;5031955;28;46547;-60
2023/01/30 07:50:56;;;;;;;;;19.25;19.25;;;;;5.97;77.13;101939.56;5016573;28;45353;-61
2023/01/30 07:53:22;;;;;;;;;21.50;16.25;;;;;5.76;77.65;101902.53;5016207;28;45406;-60
2023/01/30 07:55:47;;;;;;;;;25.50;21.75;;;;;5.96;76.98;101943.28;5016882;28;45548;-61
2023/01/30 07:58:14;;;;;;;;;18.50;14.25;;;;;6.01;77.68;101938.25;5016472;28;45357;-62
2023/01/30 08:00:39;;;;;;;;;26.00;21.40;;;;;6.03;77.77;101944.44;5014938;28;45436;-60
2023/01/30 08:03:05;;;;;;;;;33.00;22.75;;;;;6.07;78.08;101947.72;5031737;28;45435;-64
2023/01/30 08:05:31;;;;;;;;;17.50;16.50;;;;;6.06;78.06;101940.56;5016557;28;45321;-62
2023/01/30 08:07:56;;;;;;;;;25.50;19.25;;;;;5.98;78.52;101930.41;5048537;28;46093;-60
2023/01/30 08:10:22;;;;;;;;;21.00;18.75;;;;;5.88;78.39;101910.50;5016201;28;45575;-59
2023/01/30 08:12:51;;;;;;;;;25.50;18.25;;;;;6.05;78.12;101931.53;5031750;28;45681;-59
2023/01/30 08:15:16;;;;;;;;;28.40;21.60;;;;;6.14;78.16;101950.69;5014473;28;45468;-62
2023/01/30 08:17:42;;;;;;;;;19.50;16.75;;;;;6.13;77.95;101935.34;5015681;28;45426;-62
2023/01/30 08:20:08;;;;;;;;;20.50;17.75;;;;;5.96;78.06;101895.13;4996641;28;46175;-60
2023/01/30 08:22:34;;;;;;;;;22.80;20.20;;;;;6.23;76.93;101938.88;5031071;28;45379;-61
2023/01/30 08:24:59;;;;;;;;;17.50;15.50;;;;;6.27;77.21;101940.28;5016663;28;45655;-61
2023/01/30 08:27:25;;;;;;;;;29.50;21.00;;;;;6.25;77.63;101920.50;5030316;28;45708;-62
2023/01/30 08:29:51;;;;;;;;;24.75;20.00;;;;;6.26;76.93;101941.31;5015671;28;45399;-60
2023/01/30 08:32:16;;;;;;;;;19.50;19.50;;;;;6.28;77.16;101950.19;5014917;28;45366;-60
2023/01/30 08:34:41;;;;;;;;;31.00;25.25;;;;;6.26;77.56;101954.06;5014891;28;45413;-61
2023/01/30 08:37:07;;;;;;;;;23.25;21.50;;;;;6.22;78.01;101943.47;5014861;28;45392;-61
2023/01/30 08:39:32;;;;;;;;;19.00;15.25;;;;;6.00;77.85;101906.56;5015635;28;45472;-63
2023/01/30 08:41:58;;;;;;;;;24.50;19.75;;;;;6.30;77.45;101952.75;5015019;28;45349;-62
2023/01/30 08:44:23;;;;;;;;;26.00;22.00;;;;;6.26;77.85;101946.75;5014761;28;45509;-60
2023/01/30 08:46:49;;;;;;;;;18.50;18.00;;;;;6.28;77.57;101957.47;5015194;28;45557;-62
2023/01/30 08:49:15;;;;;;;;;29.00;20.00;;;;;6.36;77.27;101966.63;5015605;28;45408;-62
2023/01/30 08:51:40;;;;;;;;;21.75;21.25;;;;;6.19;77.01;101924.69;5030180;28;45396;-60
2023/01/30 08:54:08;;;;;;;;;23.75;20.25;;;;;6.22;76.79;101920.78;5047231;28;45266;-60
2023/01/30 08:56:34;;;;;;;;;33.20;28.40;;;;;6.49;76.44;101949.03;5015249;28;45292;-59
2023/01/30 08:58:59;;;;;;;;;25.00;21.75;;;;;6.51;77.02;101960.63;5015726;28;45362;-62
2023/01/30 09:01:25;;;;;;;;;18.00;18.00;;;;;6.42;76.28;101969.75;5014396;28;45337;-62
2023/01/30 09:03:50;;;;;;;;;21.50;19.75;;;;;6.42;76.88;101969.75;5013156;28;45413;-62
2023/01/30 09:06:19;;;;;;;;;22.25;20.75;;;;;6.40;76.58;101971.78;5015345;28;45464;-62
2023/01/30 09:08:44;;;;;;;;;33.20;26.20;;;;;6.43;77.00;101982.38;5013904;28;45385;-61
2023/01/30 09:11:11;;;;;;;;;24.25;22.25;;;;;6.36;77.76;101984.88;5015909;28;45322;-55
2023/01/30 09:13:39;;;;;;;;;22.60;22.40;;;;;6.28;77.82;101982.03;5014218;28;45586;-58
2023/01/30 09:16:05;;;;;;;;;18.80;18.80;;;;;6.23;77.51;101979.75;5015126;28;46575;-61
2023/01/30 09:18:31;;;;;;;;;19.40;10.40;;;;;6.16;77.69;101960.44;5047018;28;45571;-61
2023/01/30 09:21:03;;;;;;;;;23.25;22.00;;;;;6.37;77.62;101989.31;5023883;28;45495;-62
2023/01/30 09:23:29;;;;;;;;;22.80;18.60;;;;;6.33;77.52;101976.97;4995190;28;45766;-60
2023/01/30 09:25:54;;;;;;;;;21.75;19.75;;;;;6.33;77.30;101980.56;5015000;28;45725;-58
2023/01/30 09:28:20;;;;;;;;;22.75;20.75;;;;;6.37;77.86;101984.69;5014958;28;45845;-60
2023/01/30 09:30:45;;;;;;;;;20.50;18.25;;;;;6.28;77.71;101962.94;5015354;28;45388;-62
2023/01/30 09:33:11;;;;;;;;;18.00;15.00;;;;;6.37;78.04;101984.69;5014895;28;45444;-61
2023/01/30 09:35:36;;;;;;;;;19.50;14.50;;;;;6.19;77.59;101962.84;5014822;28;46294;-61
2023/01/30 09:38:03;;;;;;;;;18.50;13.75;;;;;6.41;77.94;101998.88;5014551;28;45458;-62
2023/01/30 09:40:30;;;;;;;;;23.20;16.80;;;;;6.38;78.05;101993.75;5014852;28;45619;-61
2023/01/30 09:43:26;;;;;;;;;23.00;15.60;;;;;6.44;77.60;101990.41;5015430;28;45695;-61
2023/01/30 09:46:03;;;;;;;;;21.00;17.60;;;;;6.51;77.83;101985.16;5026731;28;46286;-63
2023/01/30 09:48:43;;;;;;;;;16.80;14.00;;;;;6.47;78.30;101978.34;5008644;28;45494;-58
2023/01/30 09:51:27;;;;;;;;;22.60;21.60;;;;;6.46;78.80;101982.91;5027206;28;45467;-56
2023/01/30 09:54:30;;;;;;;;;25.20;17.40;;;;;6.51;79.19;101977.00;4988174;28;45438;-54
2023/01/30 09:57:00;;;;;;;;;19.40;17.60;;;;;6.54;78.73;101979.44;5024222;28;45502;-60
2023/01/30 09:59:45;;;;;;;;;19.20;19.20;;;;;6.51;78.57;101983.31;5010419;28;45475;-64
2023/01/30 10:02:33;;;;;;;;;21.00;16.60;;;;;6.50;78.90;101987.06;5010782;28;45362;-62
2023/01/30 10:05:00;;;;;;;;;19.00;18.60;;;;;6.42;80.05;101969.75;5013088;28;45825;-62
2023/01/30 10:07:48;;;;;;;;;26.80;16.20;;;;;6.48;79.69;101999.13;5015520;28;46097;-63
2023/01/30 10:10:38;;;;;;;;;26.00;18.00;;;;;6.52;79.61;101992.38;5026285;28;45730;-63
2023/01/30 10:13:10;;;;;;;;;22.00;16.80;;;;;6.50;79.31;101992.53;5028429;28;45337;-61
2023/01/30 10:15:51;;;;;;;;;18.60;15.00;;;;;6.58;79.97;101993.59;5013170;28;45611;-63
2023/01/30 10:18:33;;;;;;;;;18.20;15.60;;;;;6.57;79.43;102000.94;5011576;28;46264;-62
2023/01/30 10:21:10;;;;;;;;;24.80;19.60;;;;;6.63;79.88;102003.03;5024708;28;45404;-64
2023/01/30 10:24:17;;;;;;;;;18.00;16.20;;;;;6.66;80.12;101999.13;5008079;28;45519;-60
2023/01/30 10:26:43;;;;;;;;;20.60;19.40;;;;;6.64;79.72;102001.19;5010494;28;45383;-61
2023/01/30 10:29:22;;;;;;;;;22.00;17.75;;;;;6.76;80.23;102020.91;5010096;28;46495;-62
2023/01/30 10:31:54;;;;;;;;;19.60;19.00;;;;;6.73;80.13;102002.97;4997164;28;45367;-59
2023/01/30 10:34:24;;;;;;;;;24.00;22.40;;;;;6.85;79.74;102013.66;5011122;28;45429;-63
2023/01/30 10:36:52;;;;;;;;;28.20;22.00;;;;;6.88;80.37;102008.75;5027992;28;45583;-64
2023/01/30 10:39:25;;;;;;;;;19.80;17.00;;;;;6.91;79.81;101999.38;5012999;28;45426;-64
2023/01/30 10:41:55;;;;;;;;;21.40;15.40;;;;;6.93;79.35;101994.63;5006957;28;45859;-63
2023/01/30 10:44:21;;;;;;;;;23.60;19.20;;;;;7.03;79.57;102002.72;5021896;28;45417;-64
2023/01/30 10:46:57;;;;;;;;;24.00;20.40;;;;;7.02;79.83;101977.31;5012813;28;45628;-63
2023/01/30 10:49:35;;;;;;;;;14.60;11.60;;;;;7.06;79.66;101983.31;5011223;28;48200;-64
2023/01/30 10:52:25;;;;;;;;;14.60;12.20;;;;;7.08;79.92;101978.53;5014732;28;45429;-63
2023/01/30 10:55:02;;;;;;;;;16.60;14.20;;;;;7.13;79.44;101976.19;5015004;28;45389;-63
2023/01/30 10:58:04;;;;;;;;;14.60;12.60;;;;;7.21;79.78;101982.75;5031570;28;45465;-62
2023/01/30 11:00:34;;;;;;;;;17.40;13.20;;;;;7.24;79.65;101986.00;5030222;28;46559;-63
2023/01/30 11:03:39;;;;;;;;;15.20;13.60;;;;;7.24;78.96;101985.13;5031034;28;45864;-63
2023/01/30 11:06:06;;;;;;;;;20.60;17.60;;;;;7.23;78.76;101954.25;5028449;28;45325;-63
2023/01/30 11:08:33;;;;;;;;;14.60;11.80;;;;;7.34;78.88;101969.53;5013700;28;45500;-63
2023/01/30 11:10:59;;;;;;;;;18.00;13.80;;;;;7.44;78.36;101973.00;5031590;28;46261;-64
2023/01/30 11:13:32;;;;;;;;;13.50;10.50;;;;;7.54;78.45;101982.97;5015675;28;45522;-64
2023/01/30 11:15:59;;;;;;;;;11.20;10.20;;;;;7.50;77.71;101971.50;5031109;28;45409;-64
2023/01/30 11:18:25;;;;;;;;;12.80;10.80;;;;;7.59;78.20;101986.06;5015997;28;45580;-62
2023/01/30 11:21:04;;;;;;;;;15.00;11.00;;;;;7.48;77.81;101946.22;5014383;28;45447;-64
2023/01/30 11:23:35;;;;;;;;;11.60;10.40;;;;;7.66;78.47;101969.88;5030730;28;45792;-65
2023/01/30 11:26:01;;;;;;;;;10.60;10.60;;;;;7.73;78.28;101976.41;5014312;28;45373;-63
2023/01/30 11:28:27;;;;;;;;;11.00;10.00;;;;;7.67;77.71;101958.78;5030470;28;45355;-63